Thunder radar more information blitzortung!


Radar de pluja more information rain snow radar


Visita la nostra xarxa de llocs de meteo:

Template documentation
and downloads

And another site



No particular awareness of the weather is required.    There are no Weather-warnings

Pagina Historial Weather Underground text

Diari Resum Cap La, TWC- Unitats:  Tant    Imperial   Mètric
« Previous Dia
SegĂźent Dia »
Diari Setmana Mensual Anual Personalitzada
  Maxima: Minima: Media:
Temperatura: TemperatureC °F /  -17.8 °C 18.7 °F /  -7.4 °C 22.6 °F /  -5.2 °C
Punt de rosada: DewpointC °F /  -17.8 °C 13.2 °F /  -10.4 °C 14.8 °F /  -9.6 °C
Humitat: Humidity % 40 % 62 %
Wind Speed: WindSpeedKMH mph /  0 km/h - 0 mph /  0 km/h
RĂ fegues de vent: WindSpeedGustKMH mph /  0 km/h - -
Vent:- - WSW
Pression baro: PressurehPa in /  0 hPa 1015.9 in /  34398.4 hPa -
Precipitacions: 0.0 in /  0 mm    
Historical Graphs
 
 
Dades de taula per Cap La, TWC-
Temps Temperatura Punt de rosada Pression baro Vent Wind Speed RĂ fegues de vent Humitat Rainfall Rate (Hourly)
TemperatureC °F /  -17.8 °C DewpointC °F /  -17.8 °C PressurehPa in /  0 hPa Calm     Humidity % HourlyPrecipMM in /  0 mm
00:04 23.4 °F /  -4.8 °C 13.8 °F /  -10.1 °C 1017.9 in /  34466.1 hPa Calm     55 % 0.0 in /  0 mm
00:09 23.3 °F /  -4.8 °C 14.1 °F /  -9.9 °C 1017.9 in /  34466.1 hPa Calm     56 % 0.0 in /  0 mm
00:14 23.3 °F /  -4.8 °C 14.1 °F /  -9.9 °C 1017.9 in /  34466.1 hPa Calm     56 % 0.0 in /  0 mm
00:19 23.2 °F /  -4.9 °C 13.9 °F /  -10.1 °C 1017.9 in /  34466.1 hPa Calm     56 % 0.0 in /  0 mm
00:24 23.3 °F /  -4.8 °C 14.1 °F /  -9.9 °C 1017.9 in /  34466.1 hPa Calm     56 % 0.0 in /  0 mm
00:29 23.3 °F /  -4.8 °C 14.1 °F /  -9.9 °C 1017.9 in /  34466.1 hPa Calm     56 % 0.0 in /  0 mm
00:34 23.3 °F /  -4.8 °C 13.8 °F /  -10.1 °C 1017.9 in /  34466.1 hPa Calm     55 % 0.0 in /  0 mm
00:39 23.2 °F /  -4.9 °C 13.9 °F /  -10.1 °C 1017.9 in /  34466.1 hPa Calm     56 % 0.0 in /  0 mm
00:44 23.0 °F /  -5 °C 13.7 °F /  -10.2 °C 1017.9 in /  34466.1 hPa Calm     56 % 0.0 in /  0 mm
00:49 22.9 °F /  -5.1 °C 13.9 °F /  -10.1 °C 1017.9 in /  34466.1 hPa Calm     57 % 0.0 in /  0 mm
00:54 22.8 °F /  -5.1 °C 13.8 °F /  -10.1 °C 1017.9 in /  34466.1 hPa Calm     57 % 0.0 in /  0 mm
00:59 22.8 °F /  -5.1 °C 13.8 °F /  -10.1 °C 1017.9 in /  34466.1 hPa Calm     57 % 0.0 in /  0 mm
01:04 22.8 °F /  -5.1 °C 13.8 °F /  -10.1 °C 1017.9 in /  34466.1 hPa Calm     57 % 0.0 in /  0 mm
01:09 22.9 °F /  -5.1 °C 13.9 °F /  -10.1 °C 1017.9 in /  34466.1 hPa Calm     57 % 0.0 in /  0 mm
01:14 23.1 °F /  -4.9 °C 13.8 °F /  -10.1 °C 1017.9 in /  34466.1 hPa Calm     56 % 0.0 in /  0 mm
01:19 23.1 °F /  -4.9 °C 14.1 °F /  -9.9 °C 1017.9 in /  34466.1 hPa Calm     57 % 0.0 in /  0 mm
01:24 23.0 °F /  -5 °C 14.0 °F /  -10 °C 1017.9 in /  34466.1 hPa Calm     57 % 0.0 in /  0 mm
01:27 23.0 °F /  -5 °C 14.0 °F /  -10 °C 1017.9 in /  34466.1 hPa Calm     57 % 0.0 in /  0 mm
01:34 22.9 °F /  -5.1 °C 14.2 °F /  -9.9 °C 1017.9 in /  34466.1 hPa Calm     58 % 0.0 in /  0 mm
01:39 22.8 °F /  -5.1 °C 14.1 °F /  -9.9 °C 1017.9 in /  34466.1 hPa Calm     58 % 0.0 in /  0 mm
01:44 22.7 °F /  -5.2 °C 14.0 °F /  -10 °C 1017.9 in /  34466.1 hPa Calm     58 % 0.0 in /  0 mm
01:48 22.6 °F /  -5.2 °C 13.9 °F /  -10.1 °C 1017.9 in /  34466.1 hPa Calm     58 % 0.0 in /  0 mm
01:54 22.5 °F /  -5.3 °C 13.8 °F /  -10.1 °C 1017.9 in /  34466.1 hPa Calm     58 % 0.0 in /  0 mm
01:59 22.3 °F /  -5.4 °C 13.9 °F /  -10.1 °C 1017.9 in /  34466.1 hPa Calm     59 % 0.0 in /  0 mm
02:04 22.2 °F /  -5.4 °C 13.8 °F /  -10.1 °C 1017.9 in /  34466.1 hPa Calm     59 % 0.0 in /  0 mm
02:08 21.9 °F /  -5.6 °C 14.1 °F /  -9.9 °C 1017.9 in /  34466.1 hPa Calm     61 % 0.0 in /  0 mm
02:14 21.5 °F /  -5.8 °C 13.9 °F /  -10.1 °C 1017.9 in /  34466.1 hPa Calm     62 % 0.0 in /  0 mm
02:19 21.3 °F /  -5.9 °C 13.7 °F /  -10.2 °C 1017.9 in /  34466.1 hPa Calm     62 % 0.0 in /  0 mm
02:24 21.2 °F /  -6 °C 13.9 °F /  -10.1 °C 1017.9 in /  34466.1 hPa Calm     63 % 0.0 in /  0 mm
02:29 21.0 °F /  -6.1 °C 13.7 °F /  -10.2 °C 1017.9 in /  34466.1 hPa Calm     63 % 0.0 in /  0 mm
02:32 20.8 °F /  -6.2 °C 13.5 °F /  -10.3 °C 1017.9 in /  34466.1 hPa Calm     63 % 0.0 in /  0 mm
02:39 20.7 °F /  -6.3 °C 13.7 °F /  -10.2 °C 1017.9 in /  34466.1 hPa Calm     64 % 0.0 in /  0 mm
02:43 20.6 °F /  -6.3 °C 13.6 °F /  -10.2 °C 1017.9 in /  34466.1 hPa Calm     64 % 0.0 in /  0 mm
02:49 20.5 °F /  -6.4 °C 13.7 °F /  -10.2 °C 1017.9 in /  34466.1 hPa Calm     65 % 0.0 in /  0 mm
02:54 20.4 °F /  -6.4 °C 13.8 °F /  -10.1 °C 1017.9 in /  34466.1 hPa Calm     66 % 0.0 in /  0 mm
02:59 20.4 °F /  -6.4 °C 13.6 °F /  -10.2 °C 1017.9 in /  34466.1 hPa Calm     65 % 0.0 in /  0 mm
03:04 20.4 °F /  -6.4 °C 13.6 °F /  -10.2 °C 1017.9 in /  34466.1 hPa Calm     65 % 0.0 in /  0 mm
03:09 20.3 °F /  -6.5 °C 13.5 °F /  -10.3 °C 1017.9 in /  34466.1 hPa Calm     65 % 0.0 in /  0 mm
03:14 20.2 °F /  -6.6 °C 13.4 °F /  -10.3 °C 1017.9 in /  34466.1 hPa WSW 1.4 mph /  2.3 km/h   65 % 0.0 in /  0 mm
03:19 20.0 °F /  -6.7 °C 13.2 °F /  -10.4 °C 1017.9 in /  34466.1 hPa WSW 1.9 mph /  3.1 km/h   65 % 0.0 in /  0 mm
03:24 20.0 °F /  -6.7 °C 13.4 °F /  -10.3 °C 1016.9 in /  34432.2 hPa Calm     66 % 0.0 in /  0 mm
03:29 19.9 °F /  -6.7 °C 13.6 °F /  -10.2 °C 1016.9 in /  34432.2 hPa Calm     67 % 0.0 in /  0 mm
03:34 19.8 °F /  -6.8 °C 13.7 °F /  -10.2 °C 1016.9 in /  34432.2 hPa Calm     68 % 0.0 in /  0 mm
03:39 19.8 °F /  -6.8 °C 13.7 °F /  -10.2 °C 1016.9 in /  34432.2 hPa Calm     68 % 0.0 in /  0 mm
03:44 19.8 °F /  -6.8 °C 13.9 °F /  -10.1 °C 1016.9 in /  34432.2 hPa Calm     69 % 0.0 in /  0 mm
03:49 19.7 °F /  -6.8 °C 13.8 °F /  -10.1 °C 1016.9 in /  34432.2 hPa Calm     69 % 0.0 in /  0 mm
03:54 19.7 °F /  -6.8 °C 13.8 °F /  -10.1 °C 1016.9 in /  34432.2 hPa Calm     69 % 0.0 in /  0 mm
03:59 19.7 °F /  -6.8 °C 13.8 °F /  -10.1 °C 1016.9 in /  34432.2 hPa Calm     69 % 0.0 in /  0 mm
04:04 19.8 °F /  -6.8 °C 13.9 °F /  -10.1 °C 1016.9 in /  34432.2 hPa Calm     69 % 0.0 in /  0 mm
04:09 19.8 °F /  -6.8 °C 13.9 °F /  -10.1 °C 1016.9 in /  34432.2 hPa Calm     69 % 0.0 in /  0 mm
04:14 19.8 °F /  -6.8 °C 14.2 °F /  -9.9 °C 1016.9 in /  34432.2 hPa Calm     70 % 0.0 in /  0 mm
04:19 19.8 °F /  -6.8 °C 14.2 °F /  -9.9 °C 1016.9 in /  34432.2 hPa Calm     70 % 0.0 in /  0 mm
04:24 19.8 °F /  -6.8 °C 13.9 °F /  -10.1 °C 1016.9 in /  34432.2 hPa Calm     69 % 0.0 in /  0 mm
04:29 19.7 °F /  -6.8 °C 14.1 °F /  -9.9 °C 1016.9 in /  34432.2 hPa Calm     70 % 0.0 in /  0 mm
04:34 19.6 °F /  -6.9 °C 14.0 °F /  -10 °C 1016.9 in /  34432.2 hPa Calm     70 % 0.0 in /  0 mm
04:39 19.4 °F /  -7 °C 13.8 °F /  -10.1 °C 1017.9 in /  34466.1 hPa Calm     70 % 0.0 in /  0 mm
04:44 19.3 °F /  -7.1 °C 13.7 °F /  -10.2 °C 1017.9 in /  34466.1 hPa Calm     70 % 0.0 in /  0 mm
04:49 19.3 °F /  -7.1 °C 13.7 °F /  -10.2 °C 1017.9 in /  34466.1 hPa Calm     70 % 0.0 in /  0 mm
04:54 19.2 °F /  -7.1 °C 13.6 °F /  -10.2 °C 1017.9 in /  34466.1 hPa Calm     70 % 0.0 in /  0 mm
04:59 19.3 °F /  -7.1 °C 13.7 °F /  -10.2 °C 1017.9 in /  34466.1 hPa Calm     70 % 0.0 in /  0 mm
05:04 19.2 °F /  -7.1 °C 13.8 °F /  -10.1 °C 1017.9 in /  34466.1 hPa Calm     71 % 0.0 in /  0 mm
05:09 19.2 °F /  -7.1 °C 13.8 °F /  -10.1 °C 1017.9 in /  34466.1 hPa Calm     71 % 0.0 in /  0 mm
05:14 19.2 °F /  -7.1 °C 13.8 °F /  -10.1 °C 1017.9 in /  34466.1 hPa Calm     71 % 0.0 in /  0 mm
05:19 19.3 °F /  -7.1 °C 14.1 °F /  -9.9 °C 1017.9 in /  34466.1 hPa Calm     72 % 0.0 in /  0 mm
05:24 19.2 °F /  -7.1 °C 14.1 °F /  -9.9 °C 1017.9 in /  34466.1 hPa Calm     72 % 0.0 in /  0 mm
05:29 19.1 °F /  -7.2 °C 13.9 °F /  -10.1 °C 1017.9 in /  34466.1 hPa Calm     72 % 0.0 in /  0 mm
05:34 19.2 °F /  -7.1 °C 14.1 °F /  -9.9 °C 1017.9 in /  34466.1 hPa Calm     72 % 0.0 in /  0 mm
05:39 19.2 °F /  -7.1 °C 14.2 °F /  -9.9 °C 1017.9 in /  34466.1 hPa Calm     73 % 0.0 in /  0 mm
05:44 19.1 °F /  -7.2 °C 14.2 °F /  -9.9 °C 1017.9 in /  34466.1 hPa Calm     73 % 0.0 in /  0 mm
05:49 19.1 °F /  -7.2 °C 14.2 °F /  -9.9 °C 1017.9 in /  34466.1 hPa Calm     73 % 0.0 in /  0 mm
05:54 19.1 °F /  -7.2 °C 14.2 °F /  -9.9 °C 1017.9 in /  34466.1 hPa Calm     73 % 0.0 in /  0 mm
05:59 19.0 °F /  -7.2 °C 14.1 °F /  -9.9 °C 1017.9 in /  34466.1 hPa Calm     73 % 0.0 in /  0 mm
06:04 18.9 °F /  -7.3 °C 14.2 °F /  -9.9 °C 1017.9 in /  34466.1 hPa Calm     74 % 0.0 in /  0 mm
06:09 18.8 °F /  -7.3 °C 14.1 °F /  -9.9 °C 1016.9 in /  34432.2 hPa Calm     74 % 0.0 in /  0 mm
06:14 18.7 °F /  -7.4 °C 13.9 °F /  -10.1 °C 1016.9 in /  34432.2 hPa Calm     74 % 0.0 in /  0 mm
06:19 18.7 °F /  -7.4 °C 13.9 °F /  -10.1 °C 1016.9 in /  34432.2 hPa Calm     74 % 0.0 in /  0 mm
06:24 18.8 °F /  -7.3 °C 14.1 °F /  -9.9 °C 1016.9 in /  34432.2 hPa Calm     74 % 0.0 in /  0 mm
06:29 18.8 °F /  -7.3 °C 14.3 °F /  -9.8 °C 1016.9 in /  34432.2 hPa Calm     75 % 0.0 in /  0 mm
06:34 18.8 °F /  -7.3 °C 14.3 °F /  -9.8 °C 1016.9 in /  34432.2 hPa Calm     75 % 0.0 in /  0 mm
06:39 18.8 °F /  -7.3 °C 14.3 °F /  -9.8 °C 1017.9 in /  34466.1 hPa Calm     75 % 0.0 in /  0 mm
06:44 18.8 °F /  -7.3 °C 14.3 °F /  -9.8 °C 1017.9 in /  34466.1 hPa Calm     75 % 0.0 in /  0 mm
06:49 18.8 °F /  -7.3 °C 14.3 °F /  -9.8 °C 1017.9 in /  34466.1 hPa Calm     75 % 0.0 in /  0 mm
06:54 18.7 °F /  -7.4 °C 14.2 °F /  -9.9 °C 1017.9 in /  34466.1 hPa Calm     75 % 0.0 in /  0 mm
06:59 18.9 °F /  -7.3 °C 14.4 °F /  -9.8 °C 1017.9 in /  34466.1 hPa Calm     75 % 0.0 in /  0 mm
07:04 19.0 °F /  -7.2 °C 14.4 °F /  -9.8 °C 1017.9 in /  34466.1 hPa Calm     75 % 0.0 in /  0 mm
07:09 19.0 °F /  -7.2 °C 14.3 °F /  -9.8 °C 1017.9 in /  34466.1 hPa Calm     74 % 0.0 in /  0 mm
07:14 19.0 °F /  -7.2 °C 14.3 °F /  -9.8 °C 1017.9 in /  34466.1 hPa Calm     74 % 0.0 in /  0 mm
07:19 19.0 °F /  -7.2 °C 14.3 °F /  -9.8 °C 1017.9 in /  34466.1 hPa Calm     74 % 0.0 in /  0 mm
07:24 19.0 °F /  -7.2 °C 14.3 °F /  -9.8 °C 1017.9 in /  34466.1 hPa Calm     74 % 0.0 in /  0 mm
07:29 18.9 °F /  -7.3 °C 14.4 °F /  -9.8 °C 1017.9 in /  34466.1 hPa Calm     75 % 0.0 in /  0 mm
07:34 18.7 °F /  -7.4 °C 14.2 °F /  -9.9 °C 1017.9 in /  34466.1 hPa Calm     75 % 0.0 in /  0 mm
07:39 18.8 °F /  -7.3 °C 14.3 °F /  -9.8 °C 1017.9 in /  34466.1 hPa Calm     75 % 0.0 in /  0 mm
07:44 18.7 °F /  -7.4 °C 13.9 °F /  -10.1 °C 1017.9 in /  34466.1 hPa Calm     74 % 0.0 in /  0 mm
07:49 18.7 °F /  -7.4 °C 13.9 °F /  -10.1 °C 1017.9 in /  34466.1 hPa Calm     74 % 0.0 in /  0 mm
07:54 18.8 °F /  -7.3 °C 14.3 °F /  -9.8 °C 1017.9 in /  34466.1 hPa Calm     75 % 0.0 in /  0 mm
07:59 19.0 °F /  -7.2 °C 14.3 °F /  -9.8 °C 1017.9 in /  34466.1 hPa Calm     74 % 0.0 in /  0 mm
08:04 19.3 °F /  -7.1 °C 14.6 °F /  -9.7 °C 1017.9 in /  34466.1 hPa Calm     74 % 0.0 in /  0 mm
08:09 19.8 °F /  -6.8 °C 15.1 °F /  -9.4 °C 1017.9 in /  34466.1 hPa Calm     74 % 0.0 in /  0 mm
08:14 20.5 °F /  -6.4 °C 15.5 °F /  -9.2 °C 1017.9 in /  34466.1 hPa Calm     73 % 0.0 in /  0 mm
08:19 20.6 °F /  -6.3 °C 15.2 °F /  -9.3 °C 1017.9 in /  34466.1 hPa Calm     71 % 0.0 in /  0 mm
08:24 20.9 °F /  -6.2 °C 15.4 °F /  -9.2 °C 1017.9 in /  34466.1 hPa Calm     71 % 0.0 in /  0 mm
08:29 21.5 °F /  -5.8 °C 15.6 °F /  -9.1 °C 1017.9 in /  34466.1 hPa Calm     69 % 0.0 in /  0 mm
08:34 21.8 °F /  -5.7 °C 15.8 °F /  -9 °C 1017.9 in /  34466.1 hPa Calm     69 % 0.0 in /  0 mm
08:39 22.1 °F /  -5.5 °C 15.7 °F /  -9.1 °C 1017.9 in /  34466.1 hPa Calm     67 % 0.0 in /  0 mm
08:44 22.4 °F /  -5.3 °C 15.7 °F /  -9.1 °C 1017.9 in /  34466.1 hPa Calm     66 % 0.0 in /  0 mm
08:49 22.7 °F /  -5.2 °C 16.0 °F /  -8.9 °C 1017.9 in /  34466.1 hPa Calm     66 % 0.0 in /  0 mm
08:54 23.0 °F /  -5 °C 16.1 °F /  -8.8 °C 1017.9 in /  34466.1 hPa Calm     65 % 0.0 in /  0 mm
08:59 23.3 °F /  -4.8 °C 16.1 °F /  -8.8 °C 1017.9 in /  34466.1 hPa Calm     64 % 0.0 in /  0 mm
09:04 23.1 °F /  -4.9 °C 15.9 °F /  -8.9 °C 1017.9 in /  34466.1 hPa Calm     64 % 0.0 in /  0 mm
09:09 23.1 °F /  -4.9 °C 15.7 °F /  -9.1 °C 1017.9 in /  34466.1 hPa Calm     63 % 0.0 in /  0 mm
09:14 23.3 °F /  -4.8 °C 15.8 °F /  -9 °C 1017.9 in /  34466.1 hPa Calm     63 % 0.0 in /  0 mm
09:19 23.0 °F /  -5 °C 15.6 °F /  -9.1 °C 1017.9 in /  34466.1 hPa Calm     63 % 0.0 in /  0 mm
09:24 23.6 °F /  -4.7 °C 16.2 °F /  -8.8 °C 1017.9 in /  34466.1 hPa Calm     63 % 0.0 in /  0 mm
09:29 23.8 °F /  -4.6 °C 16.3 °F /  -8.7 °C 1017.9 in /  34466.1 hPa Calm     63 % 0.0 in /  0 mm
09:34 24.0 °F /  -4.4 °C 16.0 °F /  -8.9 °C 1017.9 in /  34466.1 hPa Calm     61 % 0.0 in /  0 mm
09:39 24.4 °F /  -4.2 °C 16.4 °F /  -8.7 °C 1018.9 in /  34500 hPa Calm     61 % 0.0 in /  0 mm
09:44 24.7 °F /  -4.1 °C 16.2 °F /  -8.8 °C 1018.9 in /  34500 hPa Calm     59 % 0.0 in /  0 mm
09:49 24.9 °F /  -3.9 °C 16.3 °F /  -8.7 °C 1018.9 in /  34500 hPa Calm     59 % 0.0 in /  0 mm
09:54 25.4 °F /  -3.7 °C 16.6 °F /  -8.6 °C 1017.9 in /  34466.1 hPa Calm     58 % 0.0 in /  0 mm
09:59 25.9 °F /  -3.4 °C 16.7 °F /  -8.5 °C 1017.9 in /  34466.1 hPa Calm     57 % 0.0 in /  0 mm
10:04 25.2 °F /  -3.8 °C 15.8 °F /  -9 °C 1017.9 in /  34466.1 hPa Calm     56 % 0.0 in /  0 mm
10:09 25.2 °F /  -3.8 °C 15.8 °F /  -9 °C 1017.9 in /  34466.1 hPa Calm     56 % 0.0 in /  0 mm
10:14 25.9 °F /  -3.4 °C 16.4 °F /  -8.7 °C 1017.9 in /  34466.1 hPa Calm     56 % 0.0 in /  0 mm
10:19 26.3 °F /  -3.2 °C 16.8 °F /  -8.4 °C 1017.9 in /  34466.1 hPa Calm     56 % 0.0 in /  0 mm
10:24 25.8 °F /  -3.4 °C 15.8 °F /  -9 °C 1017.9 in /  34466.1 hPa Calm     54 % 0.0 in /  0 mm
10:29 25.8 °F /  -3.4 °C 16.1 °F /  -8.8 °C 1017.9 in /  34466.1 hPa Calm     55 % 0.0 in /  0 mm
10:34 26.3 °F /  -3.2 °C 16.6 °F /  -8.6 °C 1017.9 in /  34466.1 hPa Calm     55 % 0.0 in /  0 mm
10:39 26.8 °F /  -2.9 °C 16.7 °F /  -8.5 °C 1017.9 in /  34466.1 hPa Calm     54 % 0.0 in /  0 mm
10:44 26.5 °F /  -3.1 °C 16.4 °F /  -8.7 °C 1017.9 in /  34466.1 hPa Calm     54 % 0.0 in /  0 mm
10:49 26.5 °F /  -3.1 °C 16.2 °F /  -8.8 °C 1017.9 in /  34466.1 hPa Calm     53 % 0.0 in /  0 mm
10:54 26.9 °F /  -2.8 °C 16.8 °F /  -8.4 °C 1018.9 in /  34500 hPa Calm     54 % 0.0 in /  0 mm
10:59 27.0 °F /  -2.8 °C 16.3 °F /  -8.7 °C 1018.9 in /  34500 hPa Calm     52 % 0.0 in /  0 mm
11:04 27.2 °F /  -2.7 °C 16.5 °F /  -8.6 °C 1018.9 in /  34500 hPa Calm     52 % 0.0 in /  0 mm
11:09 27.5 °F /  -2.5 °C 16.8 °F /  -8.4 °C 1018.9 in /  34500 hPa Calm     52 % 0.0 in /  0 mm
11:14 27.4 °F /  -2.6 °C 16.7 °F /  -8.5 °C 1018.9 in /  34500 hPa Calm     52 % 0.0 in /  0 mm
11:19 27.6 °F /  -2.4 °C 16.6 °F /  -8.6 °C 1018.9 in /  34500 hPa Calm     51 % 0.0 in /  0 mm
11:24 27.9 °F /  -2.3 °C 16.8 °F /  -8.4 °C 1017.9 in /  34466.1 hPa Calm     51 % 0.0 in /  0 mm
11:29 28.6 °F /  -1.9 °C 17.4 °F /  -8.1 °C 1017.9 in /  34466.1 hPa Calm     51 % 0.0 in /  0 mm
11:34 27.9 °F /  -2.3 °C 16.5 °F /  -8.6 °C 1017.9 in /  34466.1 hPa Calm     50 % 0.0 in /  0 mm
11:39 28.4 °F /  -2 °C 17.3 °F /  -8.2 °C 1017.9 in /  34466.1 hPa Calm     51 % 0.0 in /  0 mm
11:44 28.7 °F /  -1.8 °C 17.2 °F /  -8.2 °C 1017.9 in /  34466.1 hPa Calm     50 % 0.0 in /  0 mm
11:49 28.8 °F /  -1.8 °C 17.0 °F /  -8.3 °C 1017.9 in /  34466.1 hPa Calm     49 % 0.0 in /  0 mm
11:54 29.0 °F /  -1.7 °C 16.9 °F /  -8.4 °C 1017.9 in /  34466.1 hPa Calm     48 % 0.0 in /  0 mm
11:59 29.1 °F /  -1.6 °C 17.3 °F /  -8.2 °C 1017.9 in /  34466.1 hPa Calm     49 % 0.0 in /  0 mm
12:04 29.2 °F /  -1.6 °C 17.1 °F /  -8.3 °C 1017.9 in /  34466.1 hPa Calm     48 % 0.0 in /  0 mm
12:09 29.5 °F /  -1.4 °C 17.0 °F /  -8.3 °C 1017.9 in /  34466.1 hPa Calm     47 % 0.0 in /  0 mm
12:14 29.9 °F /  -1.2 °C 17.4 °F /  -8.1 °C 1017.9 in /  34466.1 hPa Calm     47 % 0.0 in /  0 mm
12:19 30.0 °F /  -1.1 °C 17.1 °F /  -8.3 °C 1017.9 in /  34466.1 hPa Calm     46 % 0.0 in /  0 mm
12:24 30.0 °F /  -1.1 °C 17.1 °F /  -8.3 °C 1016.9 in /  34432.2 hPa Calm     46 % 0.0 in /  0 mm
12:29 31.0 °F /  -0.6 °C 17.7 °F /  -7.9 °C 1016.9 in /  34432.2 hPa Calm     45 % 0.0 in /  0 mm
12:34 31.1 °F /  -0.5 °C 17.4 °F /  -8.1 °C 1016.9 in /  34432.2 hPa Calm     44 % 0.0 in /  0 mm
12:39 31.1 °F /  -0.5 °C 17.4 °F /  -8.1 °C 1017.9 in /  34466.1 hPa Calm     44 % 0.0 in /  0 mm
12:44 31.4 °F /  -0.3 °C 17.3 °F /  -8.2 °C 1017.9 in /  34466.1 hPa Calm     43 % 0.0 in /  0 mm
12:49 31.9 °F /  -0.1 °C 17.8 °F /  -7.9 °C 1017.9 in /  34466.1 hPa Calm     43 % 0.0 in /  0 mm
12:54 31.8 °F /  -0.1 °C 17.3 °F /  -8.2 °C 1016.9 in /  34432.2 hPa Calm     42 % 0.0 in /  0 mm
12:59 32.0 °F /  0 °C 16.7 °F /  -8.5 °C 1016.9 in /  34432.2 hPa Calm     40 % 0.0 in /  0 mm
13:04 32.0 °F /  0 °C 17.1 °F /  -8.3 °C 1016.9 in /  34432.2 hPa Calm     41 % 0.0 in /  0 mm
13:09 32.2 °F /  0.1 °C 16.9 °F /  -8.4 °C 1015.9 in /  34398.4 hPa Calm     40 % 0.0 in /  0 mm
Meteo Sesrovires
Elogis d' Weather Underground - 2 mb

Guio original per  Jim McMurry - jmcmurry@mwt.net Adaptat per a la plantilla per  Wim van der Kuil - Leuven-Template.eu

Trobareu la nostra informacio del temps tambe a:

Weather Underground

AWEKAS